Time;durP1;ratioP1;P1;durP2;ratioP2;P2;SDS_P1;SDS_P2;PMS_P1;PMS_P2;Temp;Humidity;BMP_temperature;BMP_pressure;BME280_temperature;BME280_humidity;BME280_pressure;Samples;Min_cycle;Max_cycle;Signal;HPM_P1;HPM_P2
2023/03/31 00:01:51;;;;;;;10.93;10.13;;;;;;;7.24;69.67;92770.66;5030445;28;20213;-74
2023/03/31 00:04:17;;;;;;;10.93;9.93;;;;;;;7.15;68.96;92759.22;5031995;28;20198;-73
2023/03/31 00:06:42;;;;;;;10.00;9.40;;;;;;;7.07;68.54;92751.91;5032884;28;20206;-74
2023/03/31 00:09:11;;;;;;;11.07;10.47;;;;;;;7.21;67.77;92746.00;5032050;28;20222;-73
2023/03/31 00:11:37;;;;;;;10.43;9.67;;;;;;;7.44;68.18;92779.31;5032143;28;20228;-74
2023/03/31 00:14:06;;;;;;;10.57;9.57;;;;;;;7.39;66.22;92766.31;5032746;28;20251;-73
2023/03/31 00:16:35;;;;;;;10.60;9.77;;;;;;;7.59;67.40;92770.81;5031283;28;20234;-73
2023/03/31 00:19:00;;;;;;;11.80;10.63;;;;;;;7.32;67.83;92739.81;5032414;28;20211;-74
2023/03/31 00:21:33;;;;;;;10.20;9.50;;;;;;;7.30;68.51;92749.66;5031988;28;20286;-74
2023/03/31 00:24:01;;;;;;;9.40;8.73;;;;;;;7.47;69.26;92759.88;5031908;28;20202;-74
2023/03/31 00:26:28;;;;;;;10.77;10.07;;;;;;;7.50;69.24;92764.53;5063627;28;20237;-74
2023/03/31 00:28:54;;;;;;;8.77;8.33;;;;;;;7.49;69.06;92768.16;5031999;28;20218;-74
2023/03/31 00:31:21;;;;;;;10.17;9.20;;;;;;;7.38;70.04;92741.38;5031926;28;20254;-74
2023/03/31 00:33:47;;;;;;;10.07;9.27;;;;;;;7.39;69.63;92740.34;5031740;28;20205;-73
2023/03/31 00:36:16;;;;;;;10.70;10.07;;;;;;;7.61;69.28;92759.09;5031809;28;20262;-73
2023/03/31 00:38:45;;;;;;;10.23;9.63;;;;;;;7.62;68.70;92749.50;5030627;28;20206;-73
2023/03/31 00:41:10;;;;;;;10.53;9.83;;;;;;;7.67;68.28;92739.88;5031560;28;20298;-73
2023/03/31 00:43:37;;;;;;;9.20;8.63;;;;;;;7.71;68.17;92737.56;5031641;28;20174;-74
2023/03/31 00:46:14;;;;;;;9.43;8.87;;;;;;;7.78;68.85;92754.47;5030336;28;20215;-74
2023/03/31 00:48:47;;;;;;;10.50;9.83;;;;;;;7.81;68.95;92753.94;5031640;28;20190;-73
2023/03/31 00:51:13;;;;;;;9.93;9.10;;;;;;;7.86;69.80;92750.59;5031138;28;20214;-73
2023/03/31 00:53:39;;;;;;;10.83;9.93;;;;;;;7.70;69.83;92731.59;5031733;28;20199;-73
2023/03/31 00:56:12;;;;;;;11.10;10.50;;;;;;;7.61;69.41;92714.94;5030502;28;20225;-73
2023/03/31 00:58:42;;;;;;;10.30;9.60;;;;;;;7.82;70.01;92726.94;5031234;28;20234;-73
2023/03/31 01:01:13;;;;;;;10.07;9.23;;;;;;;7.90;69.58;92729.03;5031365;28;20219;-73
2023/03/31 01:03:41;;;;;;;10.20;9.50;;;;;;;7.56;68.86;92667.41;5031665;28;20198;-83
2023/03/31 01:06:09;;;;;;;10.20;9.57;;;;;;;8.18;69.77;92738.91;5031349;28;20274;-80
2023/03/31 01:08:36;;;;;;;10.37;9.77;;;;;;;8.02;70.18;92724.34;5032101;28;20194;-80
2023/03/31 01:11:05;;;;;;;10.77;9.77;;;;;;;8.00;70.19;92731.63;5030641;28;20253;-80
2023/03/31 01:13:33;;;;;;;10.37;9.87;;;;;;;8.24;66.88;92720.72;5030724;28;20183;-80
2023/03/31 01:15:59;;;;;;;9.93;9.30;;;;;;;8.11;66.58;92696.78;5030565;28;20226;-80
2023/03/31 01:18:27;;;;;;;10.13;9.53;;;;;;;8.24;65.59;92718.13;5030857;28;20187;-80
2023/03/31 01:21:02;;;;;;;10.43;9.83;;;;;;;8.43;64.83;92719.16;5030208;28;20895;-80
2023/03/31 01:23:50;;;;;;;11.43;10.40;;;;;;;8.38;67.64;92719.16;5030769;28;20202;-80
2023/03/31 01:26:38;;;;;;;10.70;9.93;;;;;;;8.43;67.97;92724.34;5029348;28;20231;-80
2023/03/31 01:29:26;;;;;;;10.40;9.63;;;;;;;8.69;65.47;92725.88;5031081;28;20186;-80
2023/03/31 01:32:05;;;;;;;11.70;10.87;;;;;;;8.44;68.07;92723.31;5027876;28;20218;-80
2023/03/31 01:34:34;;;;;;;12.00;11.30;;;;;;;8.36;68.35;92734.25;5028504;28;20186;-80
2023/03/31 01:37:32;;;;;;;12.37;11.47;;;;;;;8.45;67.92;92735.28;5030864;28;20194;-80
2023/03/31 01:40:36;;;;;;;10.43;9.73;;;;;;;8.65;65.35;92748.28;5029079;28;20238;-80
2023/03/31 01:43:20;;;;;;;11.83;10.97;;;;;;;8.64;66.83;92751.91;5060726;28;20183;-81
2023/03/31 01:46:10;;;;;;;11.53;10.77;;;;;;;8.46;69.60;92744.63;5029697;28;20226;-80
2023/03/31 01:49:06;;;;;;;13.77;10.70;;;;;;;8.44;68.28;92747.50;5029423;28;20202;-81
2023/03/31 01:51:49;;;;;;;13.30;11.93;;;;;;;8.45;68.82;92745.69;5029925;28;20226;-81
2023/03/31 01:54:38;;;;;;;12.27;11.37;;;;;;;8.60;71.38;92761.28;5062482;28;20187;-81
2023/03/31 01:57:17;;;;;;;12.07;11.17;;;;;;;8.69;69.79;92746.69;5028962;28;20218;-80
2023/03/31 02:00:08;;;;;;;12.73;11.63;;;;;;;8.54;71.45;92752.72;5029501;28;20237;-81
2023/03/31 02:03:09;;;;;;;11.57;10.73;;;;;;;8.43;73.64;92755.56;5030640;28;20217;-81
2023/03/31 02:06:02;;;;;;;12.50;11.43;;;;;;;8.09;73.27;92709.25;5029614;28;20223;-81
2023/03/31 02:08:53;;;;;;;12.90;11.83;;;;;;;8.33;73.57;92755.59;5029187;28;20195;-80
2023/03/31 02:11:20;;;;;;;13.43;11.60;;;;;;;8.50;72.43;92761.31;5029149;28;20219;-81
2023/03/31 02:13:48;;;;;;;12.50;11.53;;;;;;;8.58;72.86;92751.13;5029023;28;20250;-81
2023/03/31 02:16:23;;;;;;;12.87;11.87;;;;;;;8.34;72.02;92738.94;5029721;28;20226;-80
2023/03/31 02:18:52;;;;;;;12.80;11.37;;;;;;;8.59;71.34;92777.94;5030194;28;20213;-81
2023/03/31 02:21:19;;;;;;;11.13;10.33;;;;;;;8.55;73.57;92785.47;5029180;28;20222;-82
2023/03/31 02:23:48;;;;;;;13.23;12.13;;;;;;;8.40;76.22;92792.50;5030665;28;20190;-82
2023/03/31 02:26:19;;;;;;;13.03;11.73;;;;;;;8.48;78.98;92784.97;5031398;28;20282;-82
2023/03/31 02:28:45;;;;;;;14.30;12.97;;;;;;;8.53;81.68;92794.59;5029900;28;20254;-82
2023/03/31 02:31:27;;;;;;;13.10;11.87;;;;;;;8.27;77.71;92795.63;5030276;28;20301;-83
2023/03/31 02:33:53;;;;;;;12.27;11.37;;;;;;;8.24;79.05;92790.94;5028210;28;20216;-75
2023/03/31 02:36:20;;;;;;;12.13;11.13;;;;;;;8.38;81.82;92791.97;5028328;28;20218;-76
2023/03/31 02:38:51;;;;;;;10.37;9.77;;;;;;;8.54;83.42;92783.16;5029557;28;20297;-75
2023/03/31 02:41:17;;;;;;;9.53;8.93;;;;;;;8.64;81.99;92783.16;5029448;28;20279;-75
2023/03/31 02:43:42;;;;;;;9.57;9.03;;;;;;;8.58;84.49;92771.94;5029330;28;20174;-75
2023/03/31 02:46:08;;;;;;;9.83;9.23;;;;;;;8.31;88.17;92770.66;5029981;28;20222;-75
2023/03/31 02:48:40;;;;;;;9.70;9.30;;;;;;;8.56;87.58;92786.28;5029576;28;20206;-75
2023/03/31 02:51:27;;;;;;;9.67;9.17;;;;;;;8.45;90.66;92782.13;5029278;28;20348;-75
2023/03/31 02:53:59;;;;;;;11.30;10.50;;;;;;;8.25;88.62;92769.88;5028839;28;20254;-75
2023/03/31 02:56:50;;;;;;;9.77;9.17;;;;;;;8.35;88.82;92763.91;5029276;28;20254;-75
2023/03/31 02:59:25;;;;;;;10.00;9.17;;;;;;;8.30;87.48;92763.88;5028698;28;20241;-76
2023/03/31 03:02:22;;;;;;;9.53;8.93;;;;;;;8.35;86.72;92764.69;5029915;28;20209;-75
2023/03/31 03:04:48;;;;;;;9.17;8.57;;;;;;;8.51;84.65;92765.47;5032337;28;20230;-76
2023/03/31 03:07:55;;;;;;;8.50;8.10;;;;;;;8.58;85.26;92765.97;5029624;28;20195;-75
2023/03/31 03:10:52;;;;;;;8.97;8.40;;;;;;;8.60;85.72;92774.28;5027875;28;20697;-75
2023/03/31 03:13:50;;;;;;;10.53;9.60;;;;;;;8.55;91.60;92758.69;5043925;28;20195;-76
2023/03/31 03:16:31;;;;;;;10.33;9.67;;;;;;;8.34;94.55;92754.53;5027382;28;20218;-75
2023/03/31 03:18:59;;;;;;;10.20;9.70;;;;;;;8.11;95.66;92722.00;5028564;28;20222;-75
2023/03/31 03:21:25;;;;;;;9.70;9.30;;;;;;;8.30;97.60;92750.88;5026925;28;20215;-75
2023/03/31 03:23:51;;;;;;;10.40;9.63;;;;;;;8.19;97.51;92722.28;5028675;28;20187;-75
2023/03/31 03:26:20;;;;;;;10.43;9.83;;;;;;;8.19;98.10;92744.88;5028813;28;20234;-75
2023/03/31 03:28:47;;;;;;;9.50;8.80;;;;;;;8.06;97.28;92746.19;5029078;28;20202;-75
2023/03/31 03:31:14;;;;;;;10.87;9.93;;;;;;;7.97;97.59;92698.34;5029090;28;20278;-74
2023/03/31 03:33:40;;;;;;;10.60;10.00;;;;;;;8.23;99.11;92735.56;5028537;28;20182;-75
2023/03/31 03:36:06;;;;;;;10.50;9.83;;;;;;;8.25;98.25;92717.09;5030071;28;20226;-75
2023/03/31 03:38:31;;;;;;;10.30;9.70;;;;;;;8.41;100.00;92736.84;5032507;28;20202;-76
2023/03/31 03:40:57;;;;;;;9.20;8.77;;;;;;;8.10;100.00;92721.22;5032405;28;20218;-75
2023/03/31 03:43:22;;;;;;;9.13;8.73;;;;;;;8.25;99.17;92698.91;5032998;28;20191;-75
2023/03/31 03:45:49;;;;;;;10.27;9.47;;;;;;;8.13;98.79;92684.31;5032778;28;20858;-76
2023/03/31 03:48:14;;;;;;;9.33;8.93;;;;;;;8.04;97.51;92672.88;5032618;28;20218;-76
2023/03/31 03:50:40;;;;;;;11.47;10.53;;;;;;;8.24;99.51;92702.53;5032151;28;20290;-76
2023/03/31 03:53:06;;;;;;;10.97;10.27;;;;;;;8.21;99.76;92688.19;5032580;28;20181;-74
2023/03/31 03:55:32;;;;;;;9.50;9.10;;;;;;;8.19;100.00;92701.47;5032297;28;20286;-80
2023/03/31 03:57:57;;;;;;;10.93;9.97;;;;;;;8.44;97.53;92699.88;5032162;28;20966;-72
2023/03/31 04:00:23;;;;;;;9.77;9.17;;;;;;;8.43;97.56;92709.53;5031914;28;20293;-72
2023/03/31 04:02:48;;;;;;;11.53;10.73;;;;;;;8.50;95.12;92715.22;5032974;28;20251;-74
2023/03/31 04:05:14;;;;;;;11.20;10.60;;;;;;;8.40;96.45;92706.66;5032327;28;20230;-73
2023/03/31 04:07:39;;;;;;;10.90;10.40;;;;;;;8.27;99.37;92730.59;5032371;28;20248;-75
2023/03/31 04:10:05;;;;;;;10.57;9.97;;;;;;;8.10;100.00;92721.22;5031743;28;20236;-77
2023/03/31 04:12:34;;;;;;;11.93;10.93;;;;;;;8.04;100.00;92717.06;5032221;28;20187;-77
2023/03/31 04:14:59;;;;;;;11.30;10.43;;;;;;;8.03;100.00;92730.34;5030988;28;20243;-74
2023/03/31 04:17:31;;;;;;;10.73;10.03;;;;;;;7.94;100.00;92732.66;5031990;28;20210;-73
2023/03/31 04:20:00;;;;;;;11.03;10.30;;;;;;;7.97;100.00;92716.53;5031975;28;20306;-77
2023/03/31 04:22:28;;;;;;;10.73;10.10;;;;;;;8.27;99.77;92741.78;5031794;28;20182;-77
2023/03/31 04:24:57;;;;;;;10.43;9.73;;;;;;;8.14;98.57;92737.88;5031615;28;20221;-73
2023/03/31 04:27:26;;;;;;;11.53;10.87;;;;;;;8.23;99.70;92740.75;5031702;28;20229;-79
2023/03/31 04:29:53;;;;;;;13.40;12.30;;;;;;;8.31;97.83;92723.84;5031468;28;20297;-82
2023/03/31 04:32:20;;;;;;;11.37;10.47;;;;;;;8.31;96.92;92732.44;5031859;28;20252;-75
2023/03/31 04:34:47;;;;;;;13.70;12.43;;;;;;;8.22;98.21;92738.41;5029905;28;20242;-73
2023/03/31 04:37:12;;;;;;;12.37;11.27;;;;;;;8.37;96.16;92731.41;5031887;28;20190;-79
2023/03/31 04:39:38;;;;;;;10.97;10.20;;;;;;;8.56;100.00;92716.03;5032010;28;20239;-79
2023/03/31 04:42:03;;;;;;;11.03;10.33;;;;;;;8.31;94.57;92723.84;5031644;28;20267;-78
2023/03/31 04:44:29;;;;;;;16.93;14.80;;;;;;;8.35;96.32;92727.47;5030958;28;20179;-78
2023/03/31 04:46:55;;;;;;;25.83;16.90;;;;;;;8.43;94.83;92711.34;5031227;28;20969;-78
2023/03/31 04:49:20;;;;;;;17.37;14.83;;;;;;;8.14;96.93;92700.66;5030993;28;20194;-78
2023/03/31 04:51:46;;;;;;;13.60;12.23;;;;;;;8.33;98.39;92729.59;5031252;28;20186;-79
2023/03/31 04:54:11;;;;;;;12.90;12.00;;;;;;;8.20;99.02;92713.41;5031362;28;20244;-80
2023/03/31 04:56:37;;;;;;;12.00;11.00;;;;;;;7.91;98.28;92696.78;5031076;28;20210;-79
2023/03/31 04:59:02;;;;;;;11.60;10.90;;;;;;;8.15;99.89;92708.22;5030612;28;20234;-79
2023/03/31 05:01:32;;;;;;;9.90;9.40;;;;;;;8.30;98.92;92691.06;5029037;28;20227;-79
2023/03/31 05:03:58;;;;;;;11.40;10.43;;;;;;;8.45;96.29;92673.63;5030648;28;20182;-79
2023/03/31 05:06:24;;;;;;;10.37;9.77;;;;;;;8.59;96.04;92682.44;5030116;28;20223;-79
2023/03/31 05:08:50;;;;;;;12.03;11.07;;;;;;;8.44;94.63;92627.06;5030902;28;20190;-79
2023/03/31 05:11:15;;;;;;;11.00;10.20;;;;;;;8.37;95.17;92657.78;5029353;28;20310;-78
2023/03/31 05:13:41;;;;;;;12.30;11.07;;;;;;;8.44;92.21;92689.47;5031546;28;20258;-78
2023/03/31 05:16:13;;;;;;;11.07;10.13;;;;;;;8.78;86.85;92678.22;5033061;28;20230;-78
2023/03/31 05:18:41;;;;;;;10.47;9.77;;;;;;;8.99;84.44;92689.34;5030863;28;20434;-78
2023/03/31 05:21:10;;;;;;;10.70;9.77;;;;;;;9.00;84.51;92683.06;5030950;28;20227;-78
2023/03/31 05:23:36;;;;;;;11.27;10.37;;;;;;;9.04;86.62;92678.91;5030897;28;20175;-81
2023/03/31 05:26:01;;;;;;;11.57;10.87;;;;;;;8.96;86.38;92677.66;5030597;28;20230;-78
2023/03/31 05:28:26;;;;;;;12.43;11.47;;;;;;;9.14;86.30;92684.06;5031270;28;20187;-79
2023/03/31 05:30:52;;;;;;;13.67;11.57;;;;;;;8.91;86.32;92675.06;5030385;28;20234;-79
2023/03/31 05:33:17;;;;;;;11.50;10.53;;;;;;;8.97;84.05;92668.00;5031231;28;20215;-76
2023/03/31 05:35:43;;;;;;;10.80;10.03;;;;;;;9.49;83.16;92683.91;5030092;28;20282;-74
2023/03/31 05:38:08;;;;;;;13.33;12.23;;;;;;;9.21;84.40;92671.53;5028929;28;20191;-78
2023/03/31 05:40:34;;;;;;;12.87;11.87;;;;;;;9.06;86.49;92682.00;5025971;28;20307;-78
2023/03/31 05:42:59;;;;;;;12.30;11.17;;;;;;;9.30;85.60;92683.75;5029383;28;20242;-81
2023/03/31 05:45:25;;;;;;;14.00;12.60;;;;;;;9.63;83.65;92685.63;5029394;28;20245;-72
2023/03/31 05:47:50;;;;;;;13.40;12.20;;;;;;;9.68;81.90;92684.84;5029607;28;20284;-71
2023/03/31 05:50:16;;;;;;;11.57;10.67;;;;;;;9.85;82.04;92687.84;5027414;28;20245;-72
2023/03/31 05:52:41;;;;;;;11.13;10.30;;;;;;;10.05;80.56;92700.72;5028927;28;20184;-72
2023/03/31 05:55:07;;;;;;;12.60;11.30;;;;;;;10.37;77.60;92693.19;5026395;28;20239;-70
2023/03/31 05:57:32;;;;;;;15.87;12.23;;;;;;;10.71;76.09;92699.13;5028049;28;20222;-80
2023/03/31 05:59:58;;;;;;;11.83;10.73;;;;;;;11.27;73.93;92707.13;5026431;28;20257;-75
2023/03/31 06:02:23;;;;;;;13.10;11.80;;;;;;;11.49;72.91;92698.75;5028509;28;20208;-74
2023/03/31 06:04:49;;;;;;;11.43;10.63;;;;;;;11.43;72.54;92699.88;5029930;28;20722;-78
2023/03/31 06:07:16;;;;;;;11.50;10.43;;;;;;;10.56;74.86;92695.88;5028781;28;20175;-79
2023/03/31 06:09:42;;;;;;;18.73;11.70;;;;;;;10.66;75.12;92690.56;5027863;28;20231;-78
2023/03/31 06:12:07;;;;;;;12.80;11.63;;;;;;;11.10;73.04;92704.97;5029740;28;20180;-79
2023/03/31 06:14:32;;;;;;;13.00;11.80;;;;;;;10.39;76.34;92654.53;5029351;28;20196;-79
2023/03/31 06:16:58;;;;;;;13.00;11.70;;;;;;;10.55;77.51;92696.94;5028938;28;20202;-78
2023/03/31 06:19:23;;;;;;;11.80;10.93;;;;;;;10.56;77.91;92695.88;5029648;28;20241;-79
2023/03/31 06:21:49;;;;;;;11.97;11.00;;;;;;;10.27;79.20;92693.28;5029041;28;20222;-79
2023/03/31 06:24:15;;;;;;;12.93;11.63;;;;;;;10.31;80.34;92698.72;5028729;28;20230;-79
2023/03/31 06:26:40;;;;;;;12.43;11.37;;;;;;;10.58;78.12;92675.50;5029030;28;20213;-79
2023/03/31 06:29:06;;;;;;;12.23;11.33;;;;;;;10.77;76.77;92676.34;5028992;28;20192;-79
2023/03/31 06:31:31;;;;;;;12.33;11.23;;;;;;;10.78;76.02;92672.69;5028487;28;20234;-79
2023/03/31 06:33:56;;;;;;;14.73;11.97;;;;;;;10.88;75.25;92673.34;5027867;28;20197;-79
2023/03/31 06:36:22;;;;;;;11.10;10.23;;;;;;;11.02;75.06;92692.50;5028846;28;20282;-79
2023/03/31 06:38:49;;;;;;;11.93;10.93;;;;;;;11.00;74.23;92686.78;5028662;28;20696;-78
2023/03/31 06:41:15;;;;;;;13.10;11.80;;;;;;;11.27;75.52;92696.66;5028958;28;20224;-78
2023/03/31 06:43:41;;;;;;;13.13;11.23;;;;;;;10.40;79.53;92704.88;5029306;28;20183;-79
2023/03/31 06:46:07;;;;;;;13.47;12.07;;;;;;;10.92;76.00;92694.47;5026702;28;20230;-79
2023/03/31 06:48:33;;;;;;;15.17;12.43;;;;;;;11.02;76.34;92683.88;5029442;28;20183;-79
2023/03/31 06:51:00;;;;;;;13.30;11.53;;;;;;;11.18;78.99;92709.59;5028896;28;20223;-79
2023/03/31 06:53:26;;;;;;;13.63;12.27;;;;;;;11.41;76.48;92707.22;5028796;28;20179;-79
2023/03/31 06:55:51;;;;;;;13.43;12.10;;;;;;;10.58;78.73;92691.94;5027972;28;20226;-79
2023/03/31 06:58:17;;;;;;;13.53;11.93;;;;;;;10.83;78.84;92696.13;5028838;28;20220;-79
2023/03/31 07:00:44;;;;;;;12.87;11.63;;;;;;;10.46;80.53;92691.53;5029060;28;20229;-79
2023/03/31 07:03:11;;;;;;;15.30;13.57;;;;;;;11.44;77.77;92696.97;5029040;28;20188;-79
2023/03/31 07:05:36;;;;;;;14.87;12.27;;;;;;;11.12;77.27;92700.25;5029007;28;20258;-79
2023/03/31 07:08:01;;;;;;;15.73;12.43;;;;;;;12.42;73.25;92695.03;5029115;28;20181;-79
2023/03/31 07:10:29;;;;;;;19.23;12.63;;;;;;;12.69;69.56;92689.06;5027186;28;20226;-79
2023/03/31 07:12:54;;;;;;;13.47;12.17;;;;;;;12.96;70.25;92686.50;5029497;28;20219;-78
2023/03/31 07:15:21;;;;;;;13.37;12.20;;;;;;;12.95;69.01;92684.94;5028809;28;20235;-79
2023/03/31 07:17:49;;;;;;;13.60;12.50;;;;;;;12.56;72.02;92656.56;5029037;28;20218;-79
2023/03/31 07:20:17;;;;;;;13.63;12.30;;;;;;;11.86;73.38;92656.94;5028599;28;20242;-78
2023/03/31 07:22:44;;;;;;;20.40;12.43;;;;;;;12.00;71.31;92663.78;5029554;28;20194;-79
2023/03/31 07:25:11;;;;;;;12.37;11.33;;;;;;;12.32;70.85;92655.94;5028674;28;20257;-78
2023/03/31 07:27:37;;;;;;;13.80;12.70;;;;;;;12.45;69.97;92665.66;5028025;28;20171;-79
2023/03/31 07:30:05;;;;;;;12.33;11.43;;;;;;;12.68;70.75;92648.25;5027704;28;20291;-78
2023/03/31 07:32:30;;;;;;;12.63;11.10;;;;;;;12.83;68.99;92640.09;5027510;28;20217;-79
2023/03/31 07:34:55;;;;;;;14.03;10.90;;;;;;;13.25;68.23;92650.31;5028843;28;20253;-79
2023/03/31 07:37:21;;;;;;;12.80;10.97;;;;;;;13.44;65.64;92656.22;5029133;28;20174;-79
2023/03/31 07:39:46;;;;;;;13.03;12.03;;;;;;;13.51;65.78;92647.94;5028663;28;20248;-79
2023/03/31 07:42:12;;;;;;;12.70;11.40;;;;;;;13.82;65.47;92641.72;5027811;28;20175;-80
2023/03/31 07:44:37;;;;;;;13.43;11.70;;;;;;;14.09;63.22;92625.09;5029407;28;20230;-78
2023/03/31 07:47:04;;;;;;;13.43;12.03;;;;;;;13.98;62.55;92660.53;5029014;28;20183;-79
2023/03/31 07:49:31;;;;;;;15.83;12.63;;;;;;;13.87;62.90;92649.47;5028287;28;20194;-78
2023/03/31 07:51:57;;;;;;;12.87;11.77;;;;;;;13.59;62.20;92631.47;5028607;28;20213;-79
2023/03/31 07:54:22;;;;;;;14.33;11.70;;;;;;;13.96;61.76;92642.44;5028456;28;20198;-80
2023/03/31 07:56:47;;;;;;;12.47;11.27;;;;;;;13.66;61.04;92616.91;5029143;28;20190;-78
2023/03/31 07:59:13;;;;;;;12.17;11.07;;;;;;;13.82;63.08;92652.22;5028946;28;20240;-79
2023/03/31 08:01:38;;;;;;;12.07;11.17;;;;;;;14.30;59.59;92652.44;5028764;28;20270;-79
2023/03/31 08:04:04;;;;;;;12.23;11.13;;;;;;;13.97;60.71;92623.00;5028954;28;20478;-78
2023/03/31 08:06:30;;;;;;;12.53;11.37;;;;;;;14.08;60.34;92623.53;5028070;28;20269;-79
2023/03/31 08:08:56;;;;;;;12.07;11.03;;;;;;;14.31;59.99;92622.47;5028708;28;20195;-78
2023/03/31 08:11:23;;;;;;;12.47;10.97;;;;;;;14.64;60.36;92612.44;5028238;28;20282;-79
2023/03/31 08:13:49;;;;;;;11.77;10.67;;;;;;;15.39;59.00;92592.00;5028861;28;20281;-79
2023/03/31 08:16:15;;;;;;;11.73;10.90;;;;;;;15.70;54.26;92590.75;5027063;28;20226;-78
2023/03/31 08:18:40;;;;;;;12.63;10.97;;;;;;;15.67;56.21;92622.19;5028832;28;20206;-79
2023/03/31 08:21:06;;;;;;;10.40;9.70;;;;;;;15.43;52.70;92622.63;5028140;28;20249;-78
2023/03/31 08:23:31;;;;;;;10.53;9.47;;;;;;;15.77;51.08;92613.97;5030545;28;20833;-78
2023/03/31 08:26:16;;;;;;;11.70;10.70;;;;;;;15.82;49.17;92619.09;5031764;28;20223;-79
2023/03/31 08:28:42;;;;;;;12.50;11.47;;;;;;;15.43;51.07;92600.81;5031541;28;20351;-78
2023/03/31 08:31:09;;;;;;;12.03;11.00;;;;;;;15.19;55.22;92608.31;5031372;28;20231;-78
2023/03/31 08:33:36;;;;;;;11.23;10.30;;;;;;;15.30;50.65;92606.97;5032061;28;20190;-79
2023/03/31 08:36:07;;;;;;;11.80;11.00;;;;;;;15.39;50.40;92594.63;5031551;28;20223;-78
2023/03/31 08:38:37;;;;;;;10.50;9.80;;;;;;;15.08;49.20;92604.44;5031314;28;20191;-78
2023/03/31 08:41:05;;;;;;;9.77;9.13;;;;;;;14.92;46.03;92590.13;5030951;28;20235;-78
2023/03/31 08:43:36;;;;;;;10.23;9.30;;;;;;;14.59;46.93;92581.84;5031924;28;20179;-78
2023/03/31 08:46:03;;;;;;;10.00;9.37;;;;;;;14.43;46.99;92588.53;5031407;28;20261;-78
2023/03/31 08:48:43;;;;;;;10.13;9.43;;;;;;;14.83;48.70;92602.47;5031241;28;20195;-77
2023/03/31 08:51:31;;;;;;;9.50;8.90;;;;;;;15.06;47.44;92590.81;5031261;28;20233;-78
2023/03/31 08:54:02;;;;;;;10.30;9.50;;;;;;;15.29;45.61;92600.13;5031330;28;20186;-78
2023/03/31 08:56:32;;;;;;;9.70;9.07;;;;;;;15.09;44.35;92584.94;5030314;28;20222;-79
2023/03/31 08:59:01;;;;;;;10.23;9.43;;;;;;;15.30;44.45;92594.56;5030378;28;20233;-78
2023/03/31 09:01:44;;;;;;;17.03;9.80;;;;;;;15.08;45.49;92605.19;5031307;28;20226;-77
2023/03/31 09:04:28;;;;;;;9.90;9.17;;;;;;;15.40;44.43;92602.19;5031320;28;20187;-77
2023/03/31 09:07:25;;;;;;;10.80;10.07;;;;;;;14.95;46.44;92577.16;5011163;28;20216;-77
2023/03/31 09:10:24;;;;;;;12.50;11.33;;;;;;;15.40;46.26;92588.25;5012543;28;20246;-78
2023/03/31 09:13:16;;;;;;;10.50;9.47;;;;;;;15.10;45.27;92581.22;5021045;28;20182;-77
2023/03/31 09:15:57;;;;;;;10.83;9.80;;;;;;;15.34;45.32;92573.69;5019351;28;20227;-77
2023/03/31 09:18:22;;;;;;;9.67;8.97;;;;;;;14.87;46.90;92580.53;5018915;28;20190;-78
2023/03/31 09:20:51;;;;;;;9.80;8.93;;;;;;;15.40;47.87;92572.47;5017083;28;20230;-77
2023/03/31 09:23:33;;;;;;;9.80;9.10;;;;;;;15.88;46.14;92581.78;5020460;28;20198;-77
2023/03/31 09:26:02;;;;;;;9.93;9.40;;;;;;;15.79;45.34;92580.22;5020106;28;20291;-77
2023/03/31 09:28:34;;;;;;;9.77;9.13;;;;;;;15.47;45.58;92575.44;5019140;28;20255;-78
2023/03/31 09:31:02;;;;;;;8.70;8.20;;;;;;;15.22;45.96;92576.16;5044254;28;20254;-77
2023/03/31 09:33:32;;;;;;;8.83;8.23;;;;;;;15.44;45.86;92555.75;5011068;28;20294;-78
2023/03/31 09:36:02;;;;;;;10.03;9.43;;;;;;;15.89;45.20;92585.19;5017544;28;20265;-78
2023/03/31 09:38:28;;;;;;;9.20;8.60;;;;;;;15.84;45.30;92580.84;5019757;28;20171;-78
2023/03/31 09:41:02;;;;;;;8.70;8.13;;;;;;;16.01;45.68;92591.38;5014095;28;20676;-77
2023/03/31 09:43:30;;;;;;;9.33;8.73;;;;;;;15.90;46.23;92584.88;5010876;28;20186;-78
2023/03/31 09:45:56;;;;;;;8.60;8.10;;;;;;;15.50;45.44;92580.09;5010825;28;20235;-77
2023/03/31 09:48:26;;;;;;;9.40;8.70;;;;;;;15.35;45.49;92564.69;5010812;28;20172;-78
2023/03/31 09:50:57;;;;;;;9.33;8.83;;;;;;;14.82;46.53;92590.44;5010617;28;20254;-77
2023/03/31 09:53:37;;;;;;;9.30;8.47;;;;;;;14.99;46.65;92585.22;5010270;28;20194;-78
2023/03/31 09:56:07;;;;;;;10.53;9.70;;;;;;;15.05;47.65;92566.34;5009627;28;20223;-78
2023/03/31 09:58:40;;;;;;;10.80;10.03;;;;;;;15.08;47.60;92551.84;5010447;28;20215;-78
2023/03/31 10:01:08;;;;;;;9.70;9.00;;;;;;;14.86;47.98;92554.56;5009153;28;20262;-77
2023/03/31 10:03:50;;;;;;;9.80;9.00;;;;;;;14.52;48.43;92572.84;5010562;28;20214;-77
2023/03/31 10:06:16;;;;;;;10.17;9.43;;;;;;;14.62;49.74;92575.97;5026000;28;20236;-78
2023/03/31 10:08:50;;;;;;;9.07;8.57;;;;;;;14.37;49.34;92568.75;5030131;28;20213;-78
2023/03/31 10:11:16;;;;;;;11.03;8.70;;;;;;;14.38;50.04;92554.56;5028839;28;20230;-78
2023/03/31 10:13:48;;;;;;;10.83;9.87;;;;;;;14.80;49.01;92555.78;5030204;28;20254;-77
2023/03/31 10:16:27;;;;;;;12.77;11.67;;;;;;;15.11;48.22;92551.22;5029107;28;20310;-78
2023/03/31 10:18:52;;;;;;;9.87;8.93;;;;;;;15.41;50.15;92551.13;5030285;28;20214;-77
2023/03/31 10:21:24;;;;;;;9.90;9.20;;;;;;;15.14;48.05;92555.88;5029788;28;20706;-77
2023/03/31 10:23:51;;;;;;;10.10;9.40;;;;;;;15.88;47.50;92554.66;5029590;28;20183;-78
2023/03/31 10:26:20;;;;;;;9.40;8.80;;;;;;;15.11;46.74;92553.84;5029833;28;20294;-77
2023/03/31 10:28:49;;;;;;;10.37;9.60;;;;;;;15.17;47.18;92529.72;5029749;28;20187;-79
2023/03/31 10:31:14;;;;;;;9.67;9.17;;;;;;;15.55;46.50;92517.53;5029861;28;20219;-77
2023/03/31 10:33:45;;;;;;;10.73;9.80;;;;;;;15.15;47.48;92484.56;5030265;28;20559;-78
2023/03/31 10:36:25;;;;;;;10.43;9.53;;;;;;;15.32;48.64;92536.38;5029036;28;20226;-78
2023/03/31 10:38:52;;;;;;;10.07;9.47;;;;;;;15.09;48.14;92543.63;5029246;28;20644;-77
2023/03/31 10:41:21;;;;;;;10.40;9.30;;;;;;;15.33;46.83;92507.13;5029344;28;20730;-77
2023/03/31 10:43:52;;;;;;;9.13;8.63;;;;;;;15.07;48.34;92530.03;5028544;28;20201;-74
2023/03/31 10:46:19;;;;;;;9.63;9.03;;;;;;;14.99;48.06;92527.38;5024787;28;20305;-77
2023/03/31 10:48:45;;;;;;;9.50;9.00;;;;;;;14.89;48.25;92504.00;5028766;28;20198;-76
2023/03/31 10:51:17;;;;;;;8.97;8.47;;;;;;;15.16;47.74;92522.16;5027216;28;20238;-74
2023/03/31 10:53:51;;;;;;;9.73;8.77;;;;;;;15.56;47.84;92520.94;5026872;28;20195;-75
2023/03/31 10:56:35;;;;;;;9.77;8.97;;;;;;;15.54;47.60;92512.59;5028209;28;20225;-74
2023/03/31 10:59:12;;;;;;;10.50;9.77;;;;;;;14.91;49.04;92486.09;5025087;28;20248;-78
2023/03/31 11:01:47;;;;;;;8.77;8.03;;;;;;;15.55;48.27;92519.38;5028092;28;20234;-78
2023/03/31 11:04:27;;;;;;;9.93;9.30;;;;;;;15.19;46.44;92506.50;5028506;28;20178;-73
2023/03/31 11:07:07;;;;;;;8.67;8.17;;;;;;;14.81;46.69;92516.06;5009375;28;20242;-73
2023/03/31 11:09:54;;;;;;;9.90;9.07;;;;;;;15.81;45.90;92515.66;5011779;28;20210;-72
2023/03/31 11:12:33;;;;;;;9.70;9.10;;;;;;;15.45;45.67;92511.81;5028880;28;20195;-73
2023/03/31 11:15:12;;;;;;;11.33;9.87;;;;;;;15.54;45.97;92517.84;5027413;28;20245;-72
2023/03/31 11:18:08;;;;;;;9.70;8.83;;;;;;;15.39;46.23;92505.16;5059776;28;20202;-73
2023/03/31 11:20:54;;;;;;;9.40;8.60;;;;;;;15.02;46.70;92503.13;5027986;28;20238;-73
2023/03/31 11:23:56;;;;;;;10.23;9.40;;;;;;;15.31;47.14;92487.50;5028616;28;20194;-73
2023/03/31 11:27:21;;;;;;;10.70;10.00;;;;;;;15.36;45.95;92479.47;5027580;28;20222;-72
2023/03/31 11:30:00;;;;;;;9.83;9.13;;;;;;;15.28;46.04;92486.28;5011655;28;20230;-73
2023/03/31 11:32:45;;;;;;;10.63;9.97;;;;;;;15.45;45.32;92467.88;5029018;28;20254;-73
2023/03/31 11:35:34;;;;;;;12.23;8.60;;;;;;;15.60;46.41;92474.50;5027891;28;20226;-72
2023/03/31 11:38:40;;;;;;;10.13;9.63;;;;;;;15.57;45.89;92462.75;5029141;28;20198;-73
2023/03/31 11:41:20;;;;;;;10.80;9.93;;;;;;;15.75;45.12;92466.13;5043921;28;21022;-71
2023/03/31 11:43:59;;;;;;;9.80;9.00;;;;;;;15.75;45.91;92445.81;5028891;28;20222;-73
2023/03/31 11:46:34;;;;;;;9.90;9.20;;;;;;;15.73;45.74;92460.41;5028453;28;20226;-72